LEGA

Armilla Airport

Airport
ICAO code
LEGA
Summary
ICAO Region
EUR
ICAO Territory
Location

, Andalucia

Serving
Granada
Elevation
2297 ft
Coordinates
37° 7' 60" N , 3° 38' 8" W
Metar
LEGA 200730Z 30004KT 250V340 CAVOK 16/09 Q1019

Runways

Designator Length Width Surface Rops
18/36 1300 30 ASP No/No

Airport map

Aerial View

SKYbrary Partners:

Safety knowledge contributed by: